sensor_id;sensor_type;location;lat;lon;timestamp;pressure;altitude;pressure_sealevel;temperature;humidity
84592;BME280;74826;50.812;16.038;2024-03-08T00:01:52;97221.38;;;3.83;67.07
84592;BME280;74826;50.812;16.038;2024-03-08T00:04:18;97222.94;;;3.84;66.55
84592;BME280;74826;50.812;16.038;2024-03-08T00:06:43;97251.34;;;4.00;66.51
84592;BME280;74826;50.812;16.038;2024-03-08T00:09:11;97243.03;;;3.83;67.16
84592;BME280;74826;50.812;16.038;2024-03-08T00:11:36;97222.16;;;3.83;66.82
84592;BME280;74826;50.812;16.038;2024-03-08T00:14:02;97237.31;;;3.86;67.07
84592;BME280;74826;50.812;16.038;2024-03-08T00:16:27;97246.94;;;3.91;67.91
84592;BME280;74826;50.812;16.038;2024-03-08T00:18:53;97241.19;;;3.89;67.92
84592;BME280;74826;50.812;16.038;2024-03-08T00:21:18;97247.72;;;3.96;67.88
84592;BME280;74826;50.812;16.038;2024-03-08T00:23:43;97241.19;;;3.89;68.08
84592;BME280;74826;50.812;16.038;2024-03-08T00:26:09;97233.38;;;3.84;68.27
84592;BME280;74826;50.812;16.038;2024-03-08T00:28:34;97241.97;;;3.94;68.50
84592;BME280;74826;50.812;16.038;2024-03-08T00:31:00;97227.13;;;3.80;68.11
84592;BME280;74826;50.812;16.038;2024-03-08T00:33:26;97225.28;;;3.85;68.09
84592;BME280;74826;50.812;16.038;2024-03-08T00:35:53;97238.06;;;3.97;68.14
84592;BME280;74826;50.812;16.038;2024-03-08T00:38:18;97235.47;;;4.02;67.05
84592;BME280;74826;50.812;16.038;2024-03-08T00:40:44;97235.19;;;4.03;68.21
84592;BME280;74826;50.812;16.038;2024-03-08T00:43:09;97216.94;;;3.93;67.86
84592;BME280;74826;50.812;16.038;2024-03-08T00:45:35;97234.88;;;4.10;68.15
84592;BME280;74826;50.812;16.038;2024-03-08T00:48:02;97239.34;;;4.14;67.96
84592;BME280;74826;50.812;16.038;2024-03-08T00:50:28;97235.94;;;4.19;68.37
84592;BME280;74826;50.812;16.038;2024-03-08T00:52:53;97209.34;;;4.02;68.19
84592;BME280;74826;50.812;16.038;2024-03-08T00:55:18;97210.34;;;4.06;68.10
84592;BME280;74826;50.812;16.038;2024-03-08T00:57:44;97224.44;;;4.20;67.40
84592;BME280;74826;50.812;16.038;2024-03-08T01:00:10;97209.84;;;4.09;67.72
84592;BME280;74826;50.812;16.038;2024-03-08T01:02:38;97195.78;;;4.00;68.29
84592;BME280;74826;50.812;16.038;2024-03-08T01:05:03;97214.53;;;4.12;68.51
84592;BME280;74826;50.812;16.038;2024-03-08T01:07:33;97191.88;;;3.97;68.76
84592;BME280;74826;50.812;16.038;2024-03-08T01:09:59;97209.59;;;4.15;67.96
84592;BME280;74826;50.812;16.038;2024-03-08T01:12:26;97184.78;;;4.13;68.81
84592;BME280;74826;50.812;16.038;2024-03-08T01:14:51;97196.22;;;4.22;68.72
84592;BME280;74826;50.812;16.038;2024-03-08T01:17:17;97197.28;;;4.21;69.15
84592;BME280;74826;50.812;16.038;2024-03-08T01:19:42;97183.72;;;4.19;69.35
84592;BME280;74826;50.812;16.038;2024-03-08T01:22:10;97176.66;;;4.14;68.54
84592;BME280;74826;50.812;16.038;2024-03-08T01:24:35;97174.34;;;4.13;68.99
84592;BME280;74826;50.812;16.038;2024-03-08T01:27:01;97178.81;;;3.97;69.39
84592;BME280;74826;50.812;16.038;2024-03-08T01:29:27;97188.94;;;4.14;69.27
84592;BME280;74826;50.812;16.038;2024-03-08T01:31:55;97180.59;;;4.17;68.41
84592;BME280;74826;50.812;16.038;2024-03-08T01:34:21;97174.81;;;4.20;68.63
84592;BME280;74826;50.812;16.038;2024-03-08T01:36:48;97160.75;;;4.11;67.26
84592;BME280;74826;50.812;16.038;2024-03-08T01:39:13;97165.97;;;4.06;67.42
84592;BME280;74826;50.812;16.038;2024-03-08T01:41:39;97186.84;;;4.16;66.86
84592;BME280;74826;50.812;16.038;2024-03-08T01:44:05;97148.25;;;4.03;66.72
84592;BME280;74826;50.812;16.038;2024-03-08T01:46:33;97157.94;;;3.92;68.12
84592;BME280;74826;50.812;16.038;2024-03-08T01:49:00;97177.47;;;4.05;66.98
84592;BME280;74826;50.812;16.038;2024-03-08T01:51:27;97136.81;;;3.89;68.23
84592;BME280;74826;50.812;16.038;2024-03-08T01:53:55;97143.59;;;3.90;66.92
84592;BME280;74826;50.812;16.038;2024-03-08T01:56:21;97150.38;;;3.81;66.16
84592;BME280;74826;50.812;16.038;2024-03-08T01:58:46;97145.19;;;3.86;67.26
84592;BME280;74826;50.812;16.038;2024-03-08T02:01:12;97171.25;;;3.91;67.15
84592;BME280;74826;50.812;16.038;2024-03-08T02:03:41;97166.06;;;3.86;66.82
84592;BME280;74826;50.812;16.038;2024-03-08T02:06:09;97161.63;;;3.76;66.99
84592;BME280;74826;50.812;16.038;2024-03-08T02:08:36;97158.25;;;3.66;67.05
84592;BME280;74826;50.812;16.038;2024-03-08T02:11:01;97149.13;;;3.58;67.16
84592;BME280;74826;50.812;16.038;2024-03-08T02:13:27;97153.84;;;3.56;66.89
84592;BME280;74826;50.812;16.038;2024-03-08T02:15:57;97158.25;;;3.55;66.65
84592;BME280;74826;50.812;16.038;2024-03-08T02:18:24;97150.47;;;3.50;67.52
84592;BME280;74826;50.812;16.038;2024-03-08T02:20:58;97151.78;;;3.43;67.52
84592;BME280;74826;50.812;16.038;2024-03-08T02:23:24;97152.56;;;3.38;67.75
84592;BME280;74826;50.812;16.038;2024-03-08T02:25:50;97129.09;;;3.18;67.55
84592;BME280;74826;50.812;16.038;2024-03-08T02:28:16;97117.63;;;3.09;67.55
84592;BME280;74826;50.812;16.038;2024-03-08T02:30:44;97144.50;;;3.20;67.35
84592;BME280;74826;50.812;16.038;2024-03-08T02:33:09;97136.16;;;3.18;67.03
84592;BME280;74826;50.812;16.038;2024-03-08T02:35:35;97121.78;;;2.95;67.54
84592;BME280;74826;50.812;16.038;2024-03-08T02:38:02;97127.50;;;2.82;67.91
84592;BME280;74826;50.812;16.038;2024-03-08T02:40:29;97137.94;;;2.92;68.70
84592;BME280;74826;50.812;16.038;2024-03-08T02:42:54;97141.59;;;2.91;69.01
84592;BME280;74826;50.812;16.038;2024-03-08T02:45:19;97146.81;;;2.86;68.47
84592;BME280;74826;50.812;16.038;2024-03-08T02:47:45;97126.47;;;2.78;67.88
84592;BME280;74826;50.812;16.038;2024-03-08T02:50:11;97121.22;;;2.58;68.45
84592;BME280;74826;50.812;16.038;2024-03-08T02:52:37;97133.22;;;2.69;68.98
84592;BME280;74826;50.812;16.038;2024-03-08T02:55:03;97140.50;;;2.57;68.99
84592;BME280;74826;50.812;16.038;2024-03-08T02:57:28;97121.19;;;2.43;68.78
84592;BME280;74826;50.812;16.038;2024-03-08T02:59:54;97118.06;;;2.46;69.20
84592;BME280;74826;50.812;16.038;2024-03-08T03:02:19;97139.44;;;2.53;69.37
84592;BME280;74826;50.812;16.038;2024-03-08T03:04:44;97145.16;;;2.40;69.15
84592;BME280;74826;50.812;16.038;2024-03-08T03:07:10;97133.13;;;2.29;67.94
84592;BME280;74826;50.812;16.038;2024-03-08T03:09:36;97124.50;;;2.18;68.23
84592;BME280;74826;50.812;16.038;2024-03-08T03:12:02;97116.38;;;2.05;68.58
84592;BME280;74826;50.812;16.038;2024-03-08T03:14:28;97139.34;;;2.23;67.78
84592;BME280;74826;50.812;16.038;2024-03-08T03:16:53;97139.38;;;2.28;68.61
84592;BME280;74826;50.812;16.038;2024-03-08T03:19:20;97141.72;;;2.24;67.46
84592;BME280;74826;50.812;16.038;2024-03-08T03:21:45;97144.00;;;2.16;68.06
84592;BME280;74826;50.812;16.038;2024-03-08T03:24:11;97156.97;;;2.01;68.99
84592;BME280;74826;50.812;16.038;2024-03-08T03:26:37;97125.13;;;1.83;69.20
84592;BME280;74826;50.812;16.038;2024-03-08T03:29:05;97141.84;;;1.98;69.03
84592;BME280;74826;50.812;16.038;2024-03-08T03:31:31;97136.09;;;1.91;65.98
84592;BME280;74826;50.812;16.038;2024-03-08T03:33:57;97136.84;;;1.86;66.64
84592;BME280;74826;50.812;16.038;2024-03-08T03:36:27;97136.31;;;1.84;68.06
84592;BME280;74826;50.812;16.038;2024-03-08T03:38:53;97144.38;;;1.83;67.42
84592;BME280;74826;50.812;16.038;2024-03-08T03:41:30;97129.03;;;1.86;67.44
84592;BME280;74826;50.812;16.038;2024-03-08T03:43:55;97108.41;;;1.69;67.69
84592;BME280;74826;50.812;16.038;2024-03-08T03:46:20;97112.25;;;1.62;67.59
84592;BME280;74826;50.812;16.038;2024-03-08T03:48:46;97095.31;;;1.54;66.89
84592;BME280;74826;50.812;16.038;2024-03-08T03:51:11;97129.25;;;1.74;67.07
84592;BME280;74826;50.812;16.038;2024-03-08T03:53:37;97120.41;;;1.75;66.98
84592;BME280;74826;50.812;16.038;2024-03-08T03:56:03;97132.13;;;1.78;67.50
84592;BME280;74826;50.812;16.038;2024-03-08T03:58:32;97126.63;;;1.74;67.36
84592;BME280;74826;50.812;16.038;2024-03-08T04:00:57;97110.91;;;1.54;66.81
84592;BME280;74826;50.812;16.038;2024-03-08T04:03:23;97112.50;;;1.55;67.12
84592;BME280;74826;50.812;16.038;2024-03-08T04:05:48;97115.63;;;1.57;68.22
84592;BME280;74826;50.812;16.038;2024-03-08T04:08:14;97108.66;;;1.26;68.11
84592;BME280;74826;50.812;16.038;2024-03-08T04:10:40;97120.84;;;1.21;69.73
84592;BME280;74826;50.812;16.038;2024-03-08T04:13:07;97118.72;;;1.13;69.45
84592;BME280;74826;50.812;16.038;2024-03-08T04:15:34;97123.16;;;0.85;70.18
84592;BME280;74826;50.812;16.038;2024-03-08T04:18:00;97105.44;;;0.51;70.77
84592;BME280;74826;50.812;16.038;2024-03-08T04:20:25;97106.91;;;0.42;71.96
84592;BME280;74826;50.812;16.038;2024-03-08T04:22:51;97111.84;;;0.43;72.32
84592;BME280;74826;50.812;16.038;2024-03-08T04:25:16;97113.28;;;0.56;71.36
84592;BME280;74826;50.812;16.038;2024-03-08T04:27:42;97117.59;;;0.72;70.46
84592;BME280;74826;50.812;16.038;2024-03-08T04:30:08;97109.59;;;0.78;69.57
84592;BME280;74826;50.812;16.038;2024-03-08T04:32:34;97120.47;;;0.75;70.78
84592;BME280;74826;50.812;16.038;2024-03-08T04:34:59;97116.53;;;0.68;70.74
84592;BME280;74826;50.812;16.038;2024-03-08T04:37:27;97095.16;;;0.61;71.04
84592;BME280;74826;50.812;16.038;2024-03-08T04:39:55;97087.13;;;0.62;70.13
84592;BME280;74826;50.812;16.038;2024-03-08T04:42:20;97109.88;;;0.82;70.18
84592;BME280;74826;50.812;16.038;2024-03-08T04:44:46;97110.34;;;0.74;70.88
84592;BME280;74826;50.812;16.038;2024-03-08T04:47:11;97082.13;;;0.56;70.52
84592;BME280;74826;50.812;16.038;2024-03-08T04:49:36;97080.56;;;0.55;70.53
84592;BME280;74826;50.812;16.038;2024-03-08T04:52:03;97101.16;;;0.66;70.74
84592;BME280;74826;50.812;16.038;2024-03-08T04:54:29;97106.59;;;0.65;68.88
84592;BME280;74826;50.812;16.038;2024-03-08T04:56:55;97099.66;;;0.70;69.36
84592;BME280;74826;50.812;16.038;2024-03-08T04:59:21;97088.44;;;0.65;68.22
84592;BME280;74826;50.812;16.038;2024-03-08T05:01:46;97099.97;;;0.74;67.77
84592;BME280;74826;50.812;16.038;2024-03-08T05:04:13;97098.09;;;0.69;66.42
84592;BME280;74826;50.812;16.038;2024-03-08T05:06:38;97107.22;;;0.72;67.78
84592;BME280;74826;50.812;16.038;2024-03-08T05:09:03;97089.19;;;0.60;67.52
84592;BME280;74826;50.812;16.038;2024-03-08T05:11:42;97088.88;;;0.57;67.57
84592;BME280;74826;50.812;16.038;2024-03-08T05:14:09;97085.31;;;0.63;67.81
84592;BME280;74826;50.812;16.038;2024-03-08T05:16:34;97074.88;;;0.58;67.49
84592;BME280;74826;50.812;16.038;2024-03-08T05:19:00;97112.97;;;0.79;67.49
84592;BME280;74826;50.812;16.038;2024-03-08T05:21:25;97083.22;;;0.60;67.95
84592;BME280;74826;50.812;16.038;2024-03-08T05:23:51;97106.66;;;0.70;67.99
84592;BME280;74826;50.812;16.038;2024-03-08T05:26:16;97083.38;;;0.48;68.83
84592;BME280;74826;50.812;16.038;2024-03-08T05:28:42;97105.22;;;0.52;70.40
84592;BME280;74826;50.812;16.038;2024-03-08T05:31:08;97080.41;;;0.40;68.85
84592;BME280;74826;50.812;16.038;2024-03-08T05:33:33;97102.34;;;0.54;68.05
84592;BME280;74826;50.812;16.038;2024-03-08T05:36:02;97075.28;;;0.45;65.35
84592;BME280;74826;50.812;16.038;2024-03-08T05:38:28;97093.31;;;0.56;66.97
84592;BME280;74826;50.812;16.038;2024-03-08T05:40:54;97081.03;;;0.47;67.27
84592;BME280;74826;50.812;16.038;2024-03-08T05:43:20;97070.09;;;0.45;67.45
84592;BME280;74826;50.812;16.038;2024-03-08T05:45:46;97088.41;;;0.60;68.65
84592;BME280;74826;50.812;16.038;2024-03-08T05:48:11;97079.69;;;0.44;68.62
84592;BME280;74826;50.812;16.038;2024-03-08T05:50:39;97095.72;;;0.41;69.51
84592;BME280;74826;50.812;16.038;2024-03-08T05:53:05;97088.75;;;0.42;69.86
84592;BME280;74826;50.812;16.038;2024-03-08T05:55:33;97087.00;;;0.26;70.08
84592;BME280;74826;50.812;16.038;2024-03-08T05:58:01;97085.59;;;0.40;69.87
84592;BME280;74826;50.812;16.038;2024-03-08T06:00:27;97066.81;;;0.28;69.94
84592;BME280;74826;50.812;16.038;2024-03-08T06:02:53;97081.94;;;0.36;69.82
84592;BME280;74826;50.812;16.038;2024-03-08T06:05:18;97092.31;;;0.36;70.44
84592;BME280;74826;50.812;16.038;2024-03-08T06:07:43;97068.94;;;0.31;69.65
84592;BME280;74826;50.812;16.038;2024-03-08T06:10:10;97100.56;;;0.54;70.30
84592;BME280;74826;50.812;16.038;2024-03-08T06:12:37;97096.22;;;0.65;69.88
84592;BME280;74826;50.812;16.038;2024-03-08T06:15:10;97092.19;;;0.79;69.35
84592;BME280;74826;50.812;16.038;2024-03-08T06:17:36;97091.22;;;0.85;69.22
84592;BME280;74826;50.812;16.038;2024-03-08T06:20:02;97076.25;;;0.65;69.61
84592;BME280;74826;50.812;16.038;2024-03-08T06:22:29;97101.06;;;0.83;70.66
84592;BME280;74826;50.812;16.038;2024-03-08T06:24:55;97089.56;;;0.74;70.56
84592;BME280;74826;50.812;16.038;2024-03-08T06:27:21;97104.16;;;0.80;70.03
84592;BME280;74826;50.812;16.038;2024-03-08T06:29:46;97081.81;;;0.79;69.96
84592;BME280;74826;50.812;16.038;2024-03-08T06:32:14;97082.19;;;0.93;70.33
84592;BME280;74826;50.812;16.038;2024-03-08T06:34:40;97105.19;;;1.11;69.74
84592;BME280;74826;50.812;16.038;2024-03-08T06:37:06;97093.50;;;1.13;68.79
84592;BME280;74826;50.812;16.038;2024-03-08T06:39:31;97104.03;;;1.33;68.94
84592;BME280;74826;50.812;16.038;2024-03-08T06:41:57;97101.50;;;1.43;69.13
84592;BME280;74826;50.812;16.038;2024-03-08T06:44:23;97084.88;;;1.44;68.62
84592;BME280;74826;50.812;16.038;2024-03-08T06:46:48;97078.66;;;1.50;69.30
84592;BME280;74826;50.812;16.038;2024-03-08T06:49:14;97104.28;;;1.73;68.64
84592;BME280;74826;50.812;16.038;2024-03-08T06:51:41;97081.91;;;1.72;68.83
84592;BME280;74826;50.812;16.038;2024-03-08T06:54:06;97077.00;;;1.86;67.70
84592;BME280;74826;50.812;16.038;2024-03-08T06:56:36;97094.00;;;2.04;68.49
84592;BME280;74826;50.812;16.038;2024-03-08T06:59:02;97088.25;;;1.97;68.56
84592;BME280;74826;50.812;16.038;2024-03-08T07:01:28;97073.69;;;2.01;68.70
84592;BME280;74826;50.812;16.038;2024-03-08T07:03:57;97102.41;;;2.26;68.90
84592;BME280;74826;50.812;16.038;2024-03-08T07:06:22;97103.97;;;2.37;68.17
84592;BME280;74826;50.812;16.038;2024-03-08T07:08:48;97082.09;;;2.33;68.33
84592;BME280;74826;50.812;16.038;2024-03-08T07:11:14;97100.88;;;2.45;69.21
84592;BME280;74826;50.812;16.038;2024-03-08T07:13:44;97096.72;;;2.49;69.91
84592;BME280;74826;50.812;16.038;2024-03-08T07:16:09;97103.47;;;2.50;69.70
84592;BME280;74826;50.812;16.038;2024-03-08T07:18:37;97105.59;;;2.53;70.59
84592;BME280;74826;50.812;16.038;2024-03-08T07:21:05;97095.72;;;2.65;69.68
84592;BME280;74826;50.812;16.038;2024-03-08T07:23:30;97103.78;;;2.68;69.38
84592;BME280;74826;50.812;16.038;2024-03-08T07:26:17;97097.81;;;2.63;69.79
84592;BME280;74826;50.812;16.038;2024-03-08T07:28:44;97085.84;;;2.82;70.85
84592;BME280;74826;50.812;16.038;2024-03-08T07:31:09;97094.69;;;2.86;69.80
84592;BME280;74826;50.812;16.038;2024-03-08T07:33:43;97098.34;;;2.90;70.38
84592;BME280;74826;50.812;16.038;2024-03-08T07:36:09;97070.19;;;2.92;70.50
84592;BME280;74826;50.812;16.038;2024-03-08T07:38:34;97082.16;;;3.08;69.59
84592;BME280;74826;50.812;16.038;2024-03-08T07:41:00;97095.19;;;3.33;69.53
84592;BME280;74826;50.812;16.038;2024-03-08T07:43:25;97085.75;;;3.47;68.79
84592;BME280;74826;50.812;16.038;2024-03-08T07:45:51;97079.53;;;3.48;67.86
84592;BME280;74826;50.812;16.038;2024-03-08T07:48:18;97062.03;;;3.44;67.74
84592;BME280;74826;50.812;16.038;2024-03-08T07:50:43;97077.44;;;3.50;68.16
84592;BME280;74826;50.812;16.038;2024-03-08T07:53:09;97068.00;;;3.65;67.47
84592;BME280;74826;50.812;16.038;2024-03-08T07:55:35;97054.38;;;3.78;66.57
84592;BME280;74826;50.812;16.038;2024-03-08T07:58:01;97071.88;;;3.77;65.11
84592;BME280;74826;50.812;16.038;2024-03-08T08:00:28;97069.53;;;3.76;65.91
84592;BME280;74826;50.812;16.038;2024-03-08T08:02:54;97048.09;;;3.79;65.97
84592;BME280;74826;50.812;16.038;2024-03-08T08:05:19;97067.34;;;4.03;67.49
84592;BME280;74826;50.812;16.038;2024-03-08T08:07:45;97048.59;;;3.96;65.42
84592;BME280;74826;50.812;16.038;2024-03-08T08:10:11;97070.97;;;4.07;66.00
84592;BME280;74826;50.812;16.038;2024-03-08T08:12:44;97053.63;;;4.26;67.70
84592;BME280;74826;50.812;16.038;2024-03-08T08:15:09;97047.34;;;4.32;65.28
84592;BME280;74826;50.812;16.038;2024-03-08T08:17:34;97055.41;;;4.35;62.03
84592;BME280;74826;50.812;16.038;2024-03-08T08:20:00;97024.56;;;4.37;64.50
84592;BME280;74826;50.812;16.038;2024-03-08T08:22:25;97057.25;;;4.74;61.90
84592;BME280;74826;50.812;16.038;2024-03-08T08:24:51;97061.19;;;4.71;62.95
84592;BME280;74826;50.812;16.038;2024-03-08T08:27:17;97067.72;;;4.74;60.41
84592;BME280;74826;50.812;16.038;2024-03-08T08:29:42;97067.81;;;4.92;61.63
84592;BME280;74826;50.812;16.038;2024-03-08T08:32:08;97045.72;;;5.08;63.16
84592;BME280;74826;50.812;16.038;2024-03-08T08:34:34;97040.00;;;5.06;62.57
84592;BME280;74826;50.812;16.038;2024-03-08T08:36:59;97047.44;;;5.47;60.13
84592;BME280;74826;50.812;16.038;2024-03-08T08:39:25;97054.81;;;5.92;60.69
84592;BME280;74826;50.812;16.038;2024-03-08T08:41:51;97027.47;;;6.21;58.51
84592;BME280;74826;50.812;16.038;2024-03-08T08:44:17;97036.69;;;6.38;56.25
84592;BME280;74826;50.812;16.038;2024-03-08T08:46:43;97047.84;;;6.62;55.81
84592;BME280;74826;50.812;16.038;2024-03-08T08:49:08;97048.78;;;7.03;55.69
84592;BME280;74826;50.812;16.038;2024-03-08T08:51:36;97047.84;;;7.26;59.76
84592;BME280;74826;50.812;16.038;2024-03-08T08:54:02;97047.88;;;7.40;54.26
84592;BME280;74826;50.812;16.038;2024-03-08T08:56:27;97035.47;;;7.72;52.68
84592;BME280;74826;50.812;16.038;2024-03-08T08:58:54;97034.00;;;7.80;50.32
84592;BME280;74826;50.812;16.038;2024-03-08T09:01:20;97029.81;;;7.52;52.95
84592;BME280;74826;50.812;16.038;2024-03-08T09:03:45;97029.63;;;7.89;49.99
84592;BME280;74826;50.812;16.038;2024-03-08T09:06:15;97036.41;;;7.63;50.32
84592;BME280;74826;50.812;16.038;2024-03-08T09:08:42;97035.66;;;7.49;52.71
84592;BME280;74826;50.812;16.038;2024-03-08T09:11:07;97024.75;;;7.96;51.67
84592;BME280;74826;50.812;16.038;2024-03-08T09:13:33;97029.94;;;8.23;53.17
84592;BME280;74826;50.812;16.038;2024-03-08T09:16:02;97030.00;;;8.81;49.67
84592;BME280;74826;50.812;16.038;2024-03-08T09:18:28;97022.84;;;9.04;52.06
84592;BME280;74826;50.812;16.038;2024-03-08T09:20:54;97014.75;;;9.53;51.83
84592;BME280;74826;50.812;16.038;2024-03-08T09:23:20;96993.78;;;9.87;47.73
84592;BME280;74826;50.812;16.038;2024-03-08T09:25:45;97022.13;;;10.46;49.98
84592;BME280;74826;50.812;16.038;2024-03-08T09:28:11;97017.72;;;10.16;48.35
84592;BME280;74826;50.812;16.038;2024-03-08T09:30:38;97017.72;;;10.16;49.68
84592;BME280;74826;50.812;16.038;2024-03-08T09:33:04;97021.03;;;10.56;50.97
84592;BME280;74826;50.812;16.038;2024-03-08T09:35:29;97016.97;;;10.93;49.63
84592;BME280;74826;50.812;16.038;2024-03-08T09:37:55;97008.38;;;11.13;51.48
84592;BME280;74826;50.812;16.038;2024-03-08T09:40:21;97011.16;;;11.62;51.01
84592;BME280;74826;50.812;16.038;2024-03-08T09:42:49;97009.63;;;11.99;50.59
84592;BME280;74826;50.812;16.038;2024-03-08T09:45:14;97004.03;;;12.21;49.81
84592;BME280;74826;50.812;16.038;2024-03-08T09:47:41;97012.50;;;12.35;44.25
84592;BME280;74826;50.812;16.038;2024-03-08T09:50:07;96968.34;;;12.48;44.62
84592;BME280;74826;50.812;16.038;2024-03-08T09:52:41;97003.13;;;12.59;43.12
84592;BME280;74826;50.812;16.038;2024-03-08T09:55:09;96985.63;;;12.66;45.51
84592;BME280;74826;50.812;16.038;2024-03-08T09:57:37;97003.81;;;12.88;46.52
84592;BME280;74826;50.812;16.038;2024-03-08T10:00:06;97003.63;;;13.26;46.39
84592;BME280;74826;50.812;16.038;2024-03-08T10:02:47;97005.03;;;13.23;44.55
84592;BME280;74826;50.812;16.038;2024-03-08T10:05:13;97004.06;;;13.40;41.91
84592;BME280;74826;50.812;16.038;2024-03-08T10:07:39;97005.25;;;13.30;43.64
84592;BME280;74826;50.812;16.038;2024-03-08T10:10:04;97008.72;;;13.43;45.80
84592;BME280;74826;50.812;16.038;2024-03-08T10:12:30;97000.47;;;13.69;43.20
84592;BME280;74826;50.812;16.038;2024-03-08T10:14:58;96998.69;;;13.85;39.90
84592;BME280;74826;50.812;16.038;2024-03-08T10:17:23;96998.75;;;14.12;42.43
84592;BME280;74826;50.812;16.038;2024-03-08T10:19:50;96994.56;;;14.23;40.94
84592;BME280;74826;50.812;16.038;2024-03-08T10:22:16;96990.00;;;14.48;40.01
84592;BME280;74826;50.812;16.038;2024-03-08T10:24:45;96996.84;;;14.77;41.30
84592;BME280;74826;50.812;16.038;2024-03-08T10:27:11;97000.66;;;14.64;41.28
84592;BME280;74826;50.812;16.038;2024-03-08T10:29:36;96997.81;;;14.57;41.70
84592;BME280;74826;50.812;16.038;2024-03-08T10:32:03;96989.69;;;14.65;41.87
84592;BME280;74826;50.812;16.038;2024-03-08T10:34:30;96985.56;;;14.80;42.36
84592;BME280;74826;50.812;16.038;2024-03-08T10:36:59;96986.00;;;15.25;39.46
84592;BME280;74826;50.812;16.038;2024-03-08T10:39:34;96986.22;;;15.04;37.55
84592;BME280;74826;50.812;16.038;2024-03-08T10:42:03;96984.06;;;15.10;40.95
84592;BME280;74826;50.812;16.038;2024-03-08T10:47:02;96991.97;;;15.22;41.79
84592;BME280;74826;50.812;16.038;2024-03-08T10:52:13;96984.56;;;15.00;39.58
84592;BME280;74826;50.812;16.038;2024-03-08T10:54:40;96973.31;;;14.91;42.02
84592;BME280;74826;50.812;16.038;2024-03-08T10:57:09;96963.69;;;15.14;40.12
84592;BME280;74826;50.812;16.038;2024-03-08T10:59:36;96967.06;;;15.58;39.55
84592;BME280;74826;50.812;16.038;2024-03-08T11:02:01;96952.63;;;15.28;39.50
84592;BME280;74826;50.812;16.038;2024-03-08T11:04:27;96934.00;;;15.12;43.07
84592;BME280;74826;50.812;16.038;2024-03-08T11:07:00;96951.88;;;15.27;39.32
84592;BME280;74826;50.812;16.038;2024-03-08T11:09:32;96958.72;;;15.28;40.59
84592;BME280;74826;50.812;16.038;2024-03-08T11:12:20;96943.78;;;15.70;40.13
84592;BME280;74826;50.812;16.038;2024-03-08T11:14:50;96958.63;;;16.22;41.17
84592;BME280;74826;50.812;16.038;2024-03-08T11:20:10;96936.81;;;16.51;37.00
84592;BME280;74826;50.812;16.038;2024-03-08T11:22:50;96940.81;;;16.26;37.80
84592;BME280;74826;50.812;16.038;2024-03-08T11:25:33;96931.31;;;16.25;40.08
84592;BME280;74826;50.812;16.038;2024-03-08T11:28:16;96934.94;;;16.36;37.28
84592;BME280;74826;50.812;16.038;2024-03-08T11:30:47;96934.75;;;15.90;37.25
84592;BME280;74826;50.812;16.038;2024-03-08T11:33:35;96925.34;;;16.31;37.38
84592;BME280;74826;50.812;16.038;2024-03-08T11:36:20;96931.25;;;17.01;39.08
84592;BME280;74826;50.812;16.038;2024-03-08T11:38:48;96925.81;;;16.94;36.16
84592;BME280;74826;50.812;16.038;2024-03-08T11:41:23;96919.06;;;17.00;35.82
84592;BME280;74826;50.812;16.038;2024-03-08T11:43:50;96901.47;;;16.96;36.31
84592;BME280;74826;50.812;16.038;2024-03-08T11:46:26;96904.19;;;17.22;37.69
84592;BME280;74826;50.812;16.038;2024-03-08T11:48:54;96913.38;;;17.47;36.22
84592;BME280;74826;50.812;16.038;2024-03-08T11:51:21;96906.16;;;17.73;35.13
84592;BME280;74826;50.812;16.038;2024-03-08T11:53:49;96904.09;;;17.90;34.73
84592;BME280;74826;50.812;16.038;2024-03-08T11:56:15;96904.22;;;17.70;34.79
84592;BME280;74826;50.812;16.038;2024-03-08T11:58:41;96907.50;;;17.60;36.23
84592;BME280;74826;50.812;16.038;2024-03-08T12:01:10;96883.59;;;17.45;35.97
84592;BME280;74826;50.812;16.038;2024-03-08T12:03:38;96887.38;;;17.66;35.29
84592;BME280;74826;50.812;16.038;2024-03-08T12:06:04;96896.81;;;17.87;36.79
84592;BME280;74826;50.812;16.038;2024-03-08T12:08:30;96894.25;;;17.94;32.96
84592;BME280;74826;50.812;16.038;2024-03-08T12:10:57;96892.41;;;17.98;33.46
84592;BME280;74826;50.812;16.038;2024-03-08T12:13:31;96886.63;;;17.66;33.57
84592;BME280;74826;50.812;16.038;2024-03-08T12:16:00;96873.03;;;17.74;33.90
84592;BME280;74826;50.812;16.038;2024-03-08T12:18:29;96889.13;;;17.82;34.05
84592;BME280;74826;50.812;16.038;2024-03-08T12:23:33;96858.34;;;17.61;34.76
84592;BME280;74826;50.812;16.038;2024-03-08T12:26:09;96873.31;;;17.43;36.28
84592;BME280;74826;50.812;16.038;2024-03-08T12:28:38;96863.00;;;17.19;36.60
84592;BME280;74826;50.812;16.038;2024-03-08T12:31:07;96871.78;;;17.46;36.75
84592;BME280;74826;50.812;16.038;2024-03-08T12:33:51;96866.78;;;17.41;36.54
84592;BME280;74826;50.812;16.038;2024-03-08T12:36:17;96852.94;;;17.58;36.49
84592;BME280;74826;50.812;16.038;2024-03-08T12:38:44;96859.78;;;17.55;35.13
84592;BME280;74826;50.812;16.038;2024-03-08T12:41:13;96848.75;;;17.87;36.36
84592;BME280;74826;50.812;16.038;2024-03-08T12:43:39;96852.75;;;18.00;35.29
84592;BME280;74826;50.812;16.038;2024-03-08T12:46:04;96856.00;;;18.16;35.78
84592;BME280;74826;50.812;16.038;2024-03-08T12:48:37;96855.13;;;18.08;34.49
84592;BME280;74826;50.812;16.038;2024-03-08T12:51:08;96845.41;;;18.23;33.63
84592;BME280;74826;50.812;16.038;2024-03-08T12:53:34;96851.19;;;18.61;35.05
84592;BME280;74826;50.812;16.038;2024-03-08T12:56:00;96830.28;;;18.37;33.57
84592;BME280;74826;50.812;16.038;2024-03-08T12:58:25;96841.75;;;18.38;34.52
84592;BME280;74826;50.812;16.038;2024-03-08T13:00:51;96833.03;;;18.08;33.98
84592;BME280;74826;50.812;16.038;2024-03-08T13:03:17;96842.75;;;17.93;36.06
84592;BME280;74826;50.812;16.038;2024-03-08T13:05:42;96840.78;;;18.20;34.24
84592;BME280;74826;50.812;16.038;2024-03-08T13:08:08;96836.00;;;18.03;34.26